sensor_id;sensor_type;location;lat;lon;timestamp;P1;durP1;ratioP1;P2;durP2;ratioP2
66175;SDS011;52977;44.816;20.538;2023-05-01T00:01:34;15.20;;;8.20;;
66175;SDS011;52977;44.816;20.538;2023-05-01T00:04:00;17.75;;;8.70;;
66175;SDS011;52977;44.816;20.538;2023-05-01T00:06:26;14.52;;;7.68;;
66175;SDS011;52977;44.816;20.538;2023-05-01T00:08:53;14.45;;;7.78;;
66175;SDS011;52977;44.816;20.538;2023-05-01T00:11:19;14.93;;;7.85;;
66175;SDS011;52977;44.816;20.538;2023-05-01T00:13:45;16.52;;;7.93;;
66175;SDS011;52977;44.816;20.538;2023-05-01T00:16:11;13.93;;;7.10;;
66175;SDS011;52977;44.816;20.538;2023-05-01T00:18:38;13.77;;;7.78;;
66175;SDS011;52977;44.816;20.538;2023-05-01T00:21:04;13.85;;;7.70;;
66175;SDS011;52977;44.816;20.538;2023-05-01T00:23:30;17.08;;;7.97;;
66175;SDS011;52977;44.816;20.538;2023-05-01T00:25:56;16.42;;;8.48;;
66175;SDS011;52977;44.816;20.538;2023-05-01T00:28:22;13.93;;;8.13;;
66175;SDS011;52977;44.816;20.538;2023-05-01T00:30:48;15.65;;;8.23;;
66175;SDS011;52977;44.816;20.538;2023-05-01T00:33:14;14.45;;;8.25;;
66175;SDS011;52977;44.816;20.538;2023-05-01T00:35:44;14.35;;;7.47;;
66175;SDS011;52977;44.816;20.538;2023-05-01T00:38:12;15.52;;;7.60;;
66175;SDS011;52977;44.816;20.538;2023-05-01T00:40:42;15.32;;;7.90;;
66175;SDS011;52977;44.816;20.538;2023-05-01T00:43:10;19.33;;;8.70;;
66175;SDS011;52977;44.816;20.538;2023-05-01T00:45:37;13.70;;;7.85;;
66175;SDS011;52977;44.816;20.538;2023-05-01T00:48:04;17.38;;;9.15;;
66175;SDS011;52977;44.816;20.538;2023-05-01T00:50:30;17.88;;;9.02;;
66175;SDS011;52977;44.816;20.538;2023-05-01T00:52:57;14.95;;;8.32;;
66175;SDS011;52977;44.816;20.538;2023-05-01T00:55:23;16.85;;;8.07;;
66175;SDS011;52977;44.816;20.538;2023-05-01T00:57:50;13.82;;;7.80;;
66175;SDS011;52977;44.816;20.538;2023-05-01T01:00:18;17.30;;;8.38;;
66175;SDS011;52977;44.816;20.538;2023-05-01T01:02:46;16.20;;;8.32;;
66175;SDS011;52977;44.816;20.538;2023-05-01T01:05:13;16.40;;;8.63;;
66175;SDS011;52977;44.816;20.538;2023-05-01T01:10:52;13.38;;;7.75;;
66175;SDS011;52977;44.816;20.538;2023-05-01T01:13:27;15.43;;;8.30;;
66175;SDS011;52977;44.816;20.538;2023-05-01T01:16:18;17.10;;;9.40;;
66175;SDS011;52977;44.816;20.538;2023-05-01T01:18:56;17.98;;;9.68;;
66175;SDS011;52977;44.816;20.538;2023-05-01T01:21:31;17.58;;;8.50;;
66175;SDS011;52977;44.816;20.538;2023-05-01T01:30:10;19.65;;;9.93;;
66175;SDS011;52977;44.816;20.538;2023-05-01T01:35:45;18.20;;;9.85;;
66175;SDS011;52977;44.816;20.538;2023-05-01T01:38:21;19.15;;;9.40;;
66175;SDS011;52977;44.816;20.538;2023-05-01T01:40:56;18.95;;;9.55;;
66175;SDS011;52977;44.816;20.538;2023-05-01T01:43:34;19.05;;;9.45;;
66175;SDS011;52977;44.816;20.538;2023-05-01T01:46:09;15.23;;;8.73;;
66175;SDS011;52977;44.816;20.538;2023-05-01T01:48:36;15.90;;;8.23;;
66175;SDS011;52977;44.816;20.538;2023-05-01T01:51:13;17.10;;;7.65;;
66175;SDS011;52977;44.816;20.538;2023-05-01T01:53:44;17.20;;;8.05;;
66175;SDS011;52977;44.816;20.538;2023-05-01T01:56:13;12.87;;;7.73;;
66175;SDS011;52977;44.816;20.538;2023-05-01T01:58:40;14.50;;;7.68;;
66175;SDS011;52977;44.816;20.538;2023-05-01T02:01:08;14.30;;;7.70;;
66175;SDS011;52977;44.816;20.538;2023-05-01T02:03:35;16.58;;;8.45;;
66175;SDS011;52977;44.816;20.538;2023-05-01T02:06:04;17.90;;;8.23;;
66175;SDS011;52977;44.816;20.538;2023-05-01T02:08:32;15.57;;;8.35;;
66175;SDS011;52977;44.816;20.538;2023-05-01T02:11:01;14.77;;;8.20;;
66175;SDS011;52977;44.816;20.538;2023-05-01T02:13:28;15.43;;;8.10;;
66175;SDS011;52977;44.816;20.538;2023-05-01T02:15:58;16.90;;;8.70;;
66175;SDS011;52977;44.816;20.538;2023-05-01T02:18:28;15.10;;;7.82;;
66175;SDS011;52977;44.816;20.538;2023-05-01T02:20:57;16.20;;;8.45;;
66175;SDS011;52977;44.816;20.538;2023-05-01T02:23:25;15.40;;;8.63;;
66175;SDS011;52977;44.816;20.538;2023-05-01T02:25:53;16.63;;;8.90;;
66175;SDS011;52977;44.816;20.538;2023-05-01T02:28:23;12.70;;;7.85;;
66175;SDS011;52977;44.816;20.538;2023-05-01T02:30:51;16.40;;;8.88;;
66175;SDS011;52977;44.816;20.538;2023-05-01T02:33:18;18.00;;;8.43;;
66175;SDS011;52977;44.816;20.538;2023-05-01T02:35:45;15.18;;;8.18;;
66175;SDS011;52977;44.816;20.538;2023-05-01T02:38:16;15.98;;;9.18;;
66175;SDS011;52977;44.816;20.538;2023-05-01T02:40:44;16.60;;;9.65;;
66175;SDS011;52977;44.816;20.538;2023-05-01T02:43:15;17.90;;;9.48;;
66175;SDS011;52977;44.816;20.538;2023-05-01T02:45:44;13.85;;;7.90;;
66175;SDS011;52977;44.816;20.538;2023-05-01T02:48:14;15.63;;;8.77;;
66175;SDS011;52977;44.816;20.538;2023-05-01T02:50:43;13.85;;;7.65;;
66175;SDS011;52977;44.816;20.538;2023-05-01T02:53:13;13.40;;;7.57;;
66175;SDS011;52977;44.816;20.538;2023-05-01T02:55:49;13.68;;;7.93;;
66175;SDS011;52977;44.816;20.538;2023-05-01T02:58:15;15.52;;;7.60;;
66175;SDS011;52977;44.816;20.538;2023-05-01T03:00:42;16.75;;;8.02;;
66175;SDS011;52977;44.816;20.538;2023-05-01T03:03:17;14.48;;;7.30;;
66175;SDS011;52977;44.816;20.538;2023-05-01T03:05:43;16.58;;;7.68;;
66175;SDS011;52977;44.816;20.538;2023-05-01T03:08:09;14.15;;;7.57;;
66175;SDS011;52977;44.816;20.538;2023-05-01T03:10:38;13.50;;;7.60;;
66175;SDS011;52977;44.816;20.538;2023-05-01T03:13:07;14.20;;;7.70;;
66175;SDS011;52977;44.816;20.538;2023-05-01T03:15:35;13.57;;;6.97;;
66175;SDS011;52977;44.816;20.538;2023-05-01T03:18:02;12.50;;;6.82;;
66175;SDS011;52977;44.816;20.538;2023-05-01T03:20:29;15.63;;;6.95;;
66175;SDS011;52977;44.816;20.538;2023-05-01T03:22:56;11.88;;;6.50;;
66175;SDS011;52977;44.816;20.538;2023-05-01T03:25:22;13.95;;;6.85;;
66175;SDS011;52977;44.816;20.538;2023-05-01T03:27:48;13.52;;;7.20;;
66175;SDS011;52977;44.816;20.538;2023-05-01T03:30:15;13.55;;;6.63;;
66175;SDS011;52977;44.816;20.538;2023-05-01T03:32:42;11.52;;;6.10;;
66175;SDS011;52977;44.816;20.538;2023-05-01T03:35:16;11.77;;;5.93;;
66175;SDS011;52977;44.816;20.538;2023-05-01T03:37:42;14.00;;;6.75;;
66175;SDS011;52977;44.816;20.538;2023-05-01T03:40:11;11.85;;;6.13;;
66175;SDS011;52977;44.816;20.538;2023-05-01T03:42:56;13.77;;;5.55;;
66175;SDS011;52977;44.816;20.538;2023-05-01T03:45:23;12.32;;;6.40;;
66175;SDS011;52977;44.816;20.538;2023-05-01T03:47:49;10.93;;;5.68;;
66175;SDS011;52977;44.816;20.538;2023-05-01T03:50:16;16.38;;;7.40;;
66175;SDS011;52977;44.816;20.538;2023-05-01T03:52:44;14.30;;;6.20;;
66175;SDS011;52977;44.816;20.538;2023-05-01T03:55:11;14.57;;;6.90;;
66175;SDS011;52977;44.816;20.538;2023-05-01T03:57:39;13.40;;;6.50;;
66175;SDS011;52977;44.816;20.538;2023-05-01T04:00:06;17.10;;;7.50;;
66175;SDS011;52977;44.816;20.538;2023-05-01T04:02:40;13.95;;;6.63;;
66175;SDS011;52977;44.816;20.538;2023-05-01T04:05:10;12.00;;;6.70;;
66175;SDS011;52977;44.816;20.538;2023-05-01T04:07:39;17.30;;;7.07;;
66175;SDS011;52977;44.816;20.538;2023-05-01T04:10:05;10.40;;;6.03;;
66175;SDS011;52977;44.816;20.538;2023-05-01T04:12:34;13.80;;;6.93;;
66175;SDS011;52977;44.816;20.538;2023-05-01T04:15:01;14.57;;;6.82;;
66175;SDS011;52977;44.816;20.538;2023-05-01T04:17:29;12.52;;;6.45;;
66175;SDS011;52977;44.816;20.538;2023-05-01T04:19:56;9.43;;;5.40;;
66175;SDS011;52977;44.816;20.538;2023-05-01T04:22:22;16.13;;;6.22;;
66175;SDS011;52977;44.816;20.538;2023-05-01T04:24:50;17.05;;;6.57;;
66175;SDS011;52977;44.816;20.538;2023-05-01T04:27:16;13.27;;;6.50;;
66175;SDS011;52977;44.816;20.538;2023-05-01T04:29:44;22.50;;;10.85;;
66175;SDS011;52977;44.816;20.538;2023-05-01T04:32:11;15.40;;;7.70;;
66175;SDS011;52977;44.816;20.538;2023-05-01T04:34:36;14.50;;;6.82;;
66175;SDS011;52977;44.816;20.538;2023-05-01T04:37:02;20.08;;;10.52;;
66175;SDS011;52977;44.816;20.538;2023-05-01T04:39:29;15.98;;;8.93;;
66175;SDS011;52977;44.816;20.538;2023-05-01T04:41:56;15.10;;;8.27;;
66175;SDS011;52977;44.816;20.538;2023-05-01T04:44:23;17.38;;;8.98;;
66175;SDS011;52977;44.816;20.538;2023-05-01T04:46:49;15.52;;;7.82;;
66175;SDS011;52977;44.816;20.538;2023-05-01T04:49:16;11.48;;;6.78;;
66175;SDS011;52977;44.816;20.538;2023-05-01T04:51:42;15.85;;;8.43;;
66175;SDS011;52977;44.816;20.538;2023-05-01T04:54:11;13.38;;;6.65;;
66175;SDS011;52977;44.816;20.538;2023-05-01T04:56:38;11.32;;;6.38;;
66175;SDS011;52977;44.816;20.538;2023-05-01T04:59:03;13.75;;;5.82;;
66175;SDS011;52977;44.816;20.538;2023-05-01T05:01:30;12.48;;;6.15;;
66175;SDS011;52977;44.816;20.538;2023-05-01T05:03:56;11.52;;;5.90;;
66175;SDS011;52977;44.816;20.538;2023-05-01T05:06:22;12.63;;;6.07;;
66175;SDS011;52977;44.816;20.538;2023-05-01T05:08:48;10.68;;;5.85;;
66175;SDS011;52977;44.816;20.538;2023-05-01T05:11:17;11.00;;;6.10;;
66175;SDS011;52977;44.816;20.538;2023-05-01T05:14:03;14.38;;;8.52;;
66175;SDS011;52977;44.816;20.538;2023-05-01T05:16:30;14.68;;;6.32;;
66175;SDS011;52977;44.816;20.538;2023-05-01T05:18:57;9.50;;;6.00;;
66175;SDS011;52977;44.816;20.538;2023-05-01T05:21:25;12.32;;;6.25;;
66175;SDS011;52977;44.816;20.538;2023-05-01T05:23:54;12.90;;;6.00;;
66175;SDS011;52977;44.816;20.538;2023-05-01T05:26:21;17.88;;;6.22;;
66175;SDS011;52977;44.816;20.538;2023-05-01T05:28:48;13.65;;;7.00;;
66175;SDS011;52977;44.816;20.538;2023-05-01T05:31:15;12.18;;;6.97;;
66175;SDS011;52977;44.816;20.538;2023-05-01T05:33:41;11.95;;;6.53;;
66175;SDS011;52977;44.816;20.538;2023-05-01T05:36:09;13.65;;;6.60;;
66175;SDS011;52977;44.816;20.538;2023-05-01T05:38:39;19.77;;;7.30;;
66175;SDS011;52977;44.816;20.538;2023-05-01T05:41:07;11.02;;;6.20;;
66175;SDS011;52977;44.816;20.538;2023-05-01T05:43:32;14.85;;;7.28;;
66175;SDS011;52977;44.816;20.538;2023-05-01T05:45:58;12.38;;;6.45;;
66175;SDS011;52977;44.816;20.538;2023-05-01T05:48:25;14.43;;;7.57;;
66175;SDS011;52977;44.816;20.538;2023-05-01T05:50:52;21.20;;;10.55;;
66175;SDS011;52977;44.816;20.538;2023-05-01T05:53:19;16.80;;;8.70;;
66175;SDS011;52977;44.816;20.538;2023-05-01T05:55:45;23.98;;;11.75;;
66175;SDS011;52977;44.816;20.538;2023-05-01T05:58:12;18.95;;;9.77;;
66175;SDS011;52977;44.816;20.538;2023-05-01T06:00:46;21.63;;;8.10;;
66175;SDS011;52977;44.816;20.538;2023-05-01T06:03:14;14.25;;;7.68;;
66175;SDS011;52977;44.816;20.538;2023-05-01T06:05:41;14.07;;;7.07;;
66175;SDS011;52977;44.816;20.538;2023-05-01T06:08:08;19.98;;;7.85;;
66175;SDS011;52977;44.816;20.538;2023-05-01T06:10:39;14.47;;;7.50;;
66175;SDS011;52977;44.816;20.538;2023-05-01T06:13:07;13.65;;;7.40;;
66175;SDS011;52977;44.816;20.538;2023-05-01T06:15:38;13.35;;;7.18;;
66175;SDS011;52977;44.816;20.538;2023-05-01T06:18:05;19.25;;;8.35;;
66175;SDS011;52977;44.816;20.538;2023-05-01T06:20:31;14.18;;;8.52;;
66175;SDS011;52977;44.816;20.538;2023-05-01T06:22:57;17.25;;;8.70;;
66175;SDS011;52977;44.816;20.538;2023-05-01T06:25:36;24.73;;;8.35;;
66175;SDS011;52977;44.816;20.538;2023-05-01T06:28:02;17.30;;;8.02;;
66175;SDS011;52977;44.816;20.538;2023-05-01T06:30:31;23.63;;;11.15;;
66175;SDS011;52977;44.816;20.538;2023-05-01T06:32:56;17.80;;;8.60;;
66175;SDS011;52977;44.816;20.538;2023-05-01T06:35:23;17.20;;;8.50;;
66175;SDS011;52977;44.816;20.538;2023-05-01T06:37:48;19.20;;;8.90;;
66175;SDS011;52977;44.816;20.538;2023-05-01T06:40:14;17.52;;;8.65;;
66175;SDS011;52977;44.816;20.538;2023-05-01T06:42:40;17.15;;;8.10;;
66175;SDS011;52977;44.816;20.538;2023-05-01T06:45:06;16.00;;;7.85;;
66175;SDS011;52977;44.816;20.538;2023-05-01T06:47:33;21.38;;;7.28;;
66175;SDS011;52977;44.816;20.538;2023-05-01T06:49:59;17.20;;;8.10;;
66175;SDS011;52977;44.816;20.538;2023-05-01T06:52:25;17.25;;;7.95;;
66175;SDS011;52977;44.816;20.538;2023-05-01T06:54:50;15.45;;;8.15;;
66175;SDS011;52977;44.816;20.538;2023-05-01T06:57:16;14.38;;;7.68;;
66175;SDS011;52977;44.816;20.538;2023-05-01T06:59:41;14.40;;;7.93;;
66175;SDS011;52977;44.816;20.538;2023-05-01T07:02:08;14.15;;;7.43;;
66175;SDS011;52977;44.816;20.538;2023-05-01T07:04:33;15.13;;;7.50;;
66175;SDS011;52977;44.816;20.538;2023-05-01T07:06:59;16.52;;;8.38;;
66175;SDS011;52977;44.816;20.538;2023-05-01T07:09:25;18.77;;;10.05;;
66175;SDS011;52977;44.816;20.538;2023-05-01T07:11:50;22.90;;;8.82;;
66175;SDS011;52977;44.816;20.538;2023-05-01T07:14:16;17.05;;;9.00;;
66175;SDS011;52977;44.816;20.538;2023-05-01T07:16:42;17.10;;;8.93;;
66175;SDS011;52977;44.816;20.538;2023-05-01T07:19:08;14.73;;;8.35;;
66175;SDS011;52977;44.816;20.538;2023-05-01T07:21:33;18.70;;;8.93;;
66175;SDS011;52977;44.816;20.538;2023-05-01T07:23:59;16.92;;;9.05;;
66175;SDS011;52977;44.816;20.538;2023-05-01T07:26:25;18.33;;;8.63;;
66175;SDS011;52977;44.816;20.538;2023-05-01T07:28:52;16.48;;;8.27;;
66175;SDS011;52977;44.816;20.538;2023-05-01T07:31:17;20.23;;;8.82;;
66175;SDS011;52977;44.816;20.538;2023-05-01T07:33:43;19.17;;;9.93;;
66175;SDS011;52977;44.816;20.538;2023-05-01T07:36:09;18.40;;;8.80;;
66175;SDS011;52977;44.816;20.538;2023-05-01T07:38:35;18.48;;;9.48;;
66175;SDS011;52977;44.816;20.538;2023-05-01T07:41:01;18.40;;;9.40;;
66175;SDS011;52977;44.816;20.538;2023-05-01T07:43:26;22.25;;;10.25;;
66175;SDS011;52977;44.816;20.538;2023-05-01T07:45:55;22.45;;;10.40;;
66175;SDS011;52977;44.816;20.538;2023-05-01T07:48:23;19.40;;;10.75;;
66175;SDS011;52977;44.816;20.538;2023-05-01T07:50:50;18.23;;;9.98;;
66175;SDS011;52977;44.816;20.538;2023-05-01T07:53:17;18.80;;;9.07;;
66175;SDS011;52977;44.816;20.538;2023-05-01T07:55:43;16.20;;;9.73;;
66175;SDS011;52977;44.816;20.538;2023-05-01T07:58:08;20.75;;;10.18;;
66175;SDS011;52977;44.816;20.538;2023-05-01T08:00:34;21.98;;;10.68;;
66175;SDS011;52977;44.816;20.538;2023-05-01T08:03:00;22.35;;;10.98;;
66175;SDS011;52977;44.816;20.538;2023-05-01T08:05:26;20.23;;;10.38;;
66175;SDS011;52977;44.816;20.538;2023-05-01T08:07:52;20.85;;;11.27;;
66175;SDS011;52977;44.816;20.538;2023-05-01T08:10:17;21.98;;;10.63;;
66175;SDS011;52977;44.816;20.538;2023-05-01T08:12:43;25.85;;;11.90;;
66175;SDS011;52977;44.816;20.538;2023-05-01T08:15:08;26.02;;;11.43;;
66175;SDS011;52977;44.816;20.538;2023-05-01T08:17:34;22.95;;;12.02;;
66175;SDS011;52977;44.816;20.538;2023-05-01T08:20:01;18.92;;;10.55;;
66175;SDS011;52977;44.816;20.538;2023-05-01T08:22:27;18.70;;;8.95;;
66175;SDS011;52977;44.816;20.538;2023-05-01T08:24:52;16.63;;;9.27;;
66175;SDS011;52977;44.816;20.538;2023-05-01T08:27:18;16.33;;;8.50;;
66175;SDS011;52977;44.816;20.538;2023-05-01T08:29:44;14.25;;;8.05;;
66175;SDS011;52977;44.816;20.538;2023-05-01T08:32:10;16.45;;;7.90;;
66175;SDS011;52977;44.816;20.538;2023-05-01T08:34:36;13.57;;;8.30;;
66175;SDS011;52977;44.816;20.538;2023-05-01T08:37:01;14.00;;;7.00;;
66175;SDS011;52977;44.816;20.538;2023-05-01T08:39:27;15.20;;;7.38;;
66175;SDS011;52977;44.816;20.538;2023-05-01T08:41:52;18.00;;;7.07;;
66175;SDS011;52977;44.816;20.538;2023-05-01T08:44:21;18.60;;;8.63;;
66175;SDS011;52977;44.816;20.538;2023-05-01T08:46:52;13.38;;;6.82;;
66175;SDS011;52977;44.816;20.538;2023-05-01T08:49:31;16.35;;;7.80;;
66175;SDS011;52977;44.816;20.538;2023-05-01T08:51:58;13.65;;;7.47;;
66175;SDS011;52977;44.816;20.538;2023-05-01T08:54:26;15.80;;;7.63;;
66175;SDS011;52977;44.816;20.538;2023-05-01T08:56:55;16.88;;;8.80;;
66175;SDS011;52977;44.816;20.538;2023-05-01T08:59:33;17.55;;;9.98;;
66175;SDS011;52977;44.816;20.538;2023-05-01T09:02:02;18.05;;;9.10;;
66175;SDS011;52977;44.816;20.538;2023-05-01T09:04:33;20.33;;;9.90;;
66175;SDS011;52977;44.816;20.538;2023-05-01T09:07:00;19.08;;;9.70;;
66175;SDS011;52977;44.816;20.538;2023-05-01T09:09:26;19.90;;;10.02;;
66175;SDS011;52977;44.816;20.538;2023-05-01T09:11:53;20.00;;;9.90;;
66175;SDS011;52977;44.816;20.538;2023-05-01T09:14:21;20.42;;;11.18;;
66175;SDS011;52977;44.816;20.538;2023-05-01T09:16:47;18.05;;;9.55;;
66175;SDS011;52977;44.816;20.538;2023-05-01T09:19:13;20.27;;;9.63;;
66175;SDS011;52977;44.816;20.538;2023-05-01T09:21:39;19.02;;;9.65;;
66175;SDS011;52977;44.816;20.538;2023-05-01T09:24:05;17.80;;;9.65;;
66175;SDS011;52977;44.816;20.538;2023-05-01T09:26:31;19.92;;;9.95;;
66175;SDS011;52977;44.816;20.538;2023-05-01T09:29:01;20.02;;;10.00;;
66175;SDS011;52977;44.816;20.538;2023-05-01T09:31:27;17.88;;;9.23;;
66175;SDS011;52977;44.816;20.538;2023-05-01T09:33:56;19.67;;;9.32;;
66175;SDS011;52977;44.816;20.538;2023-05-01T09:36:24;21.52;;;10.43;;
66175;SDS011;52977;44.816;20.538;2023-05-01T09:38:51;17.58;;;10.10;;
66175;SDS011;52977;44.816;20.538;2023-05-01T09:41:18;16.27;;;9.50;;
66175;SDS011;52977;44.816;20.538;2023-05-01T09:43:51;20.58;;;10.85;;
66175;SDS011;52977;44.816;20.538;2023-05-01T09:46:17;20.73;;;9.88;;
66175;SDS011;52977;44.816;20.538;2023-05-01T09:51:39;15.98;;;8.75;;
66175;SDS011;52977;44.816;20.538;2023-05-01T09:54:16;16.50;;;9.05;;
66175;SDS011;52977;44.816;20.538;2023-05-01T09:56:46;22.20;;;10.90;;
66175;SDS011;52977;44.816;20.538;2023-05-01T09:59:14;19.98;;;9.90;;
66175;SDS011;52977;44.816;20.538;2023-05-01T10:04:10;19.80;;;11.02;;
66175;SDS011;52977;44.816;20.538;2023-05-01T10:06:37;16.20;;;9.32;;
66175;SDS011;52977;44.816;20.538;2023-05-01T10:09:04;19.52;;;10.18;;
66175;SDS011;52977;44.816;20.538;2023-05-01T10:11:46;17.67;;;10.15;;
66175;SDS011;52977;44.816;20.538;2023-05-01T10:14:17;17.75;;;10.07;;
66175;SDS011;52977;44.816;20.538;2023-05-01T10:16:44;21.98;;;11.07;;
66175;SDS011;52977;44.816;20.538;2023-05-01T10:19:10;17.77;;;9.52;;
66175;SDS011;52977;44.816;20.538;2023-05-01T10:21:36;18.00;;;9.27;;
66175;SDS011;52977;44.816;20.538;2023-05-01T10:24:02;19.13;;;9.93;;
66175;SDS011;52977;44.816;20.538;2023-05-01T10:26:30;19.63;;;9.90;;
66175;SDS011;52977;44.816;20.538;2023-05-01T10:28:57;19.33;;;10.30;;
66175;SDS011;52977;44.816;20.538;2023-05-01T10:31:26;20.33;;;10.30;;
66175;SDS011;52977;44.816;20.538;2023-05-01T10:33:53;20.40;;;11.02;;
66175;SDS011;52977;44.816;20.538;2023-05-01T10:36:26;20.38;;;10.05;;
66175;SDS011;52977;44.816;20.538;2023-05-01T10:38:57;19.42;;;9.95;;
66175;SDS011;52977;44.816;20.538;2023-05-01T10:41:59;16.65;;;9.60;;
66175;SDS011;52977;44.816;20.538;2023-05-01T10:44:33;20.80;;;9.38;;
66175;SDS011;52977;44.816;20.538;2023-05-01T10:57:59;10.18;;;6.82;;
66175;SDS011;52977;44.816;20.538;2023-05-01T11:00:25;14.02;;;6.47;;
66175;SDS011;52977;44.816;20.538;2023-05-01T11:03:14;12.93;;;7.10;;
66175;SDS011;52977;44.816;20.538;2023-05-01T11:06:05;10.93;;;5.50;;
66175;SDS011;52977;44.816;20.538;2023-05-01T11:08:32;13.38;;;5.90;;
66175;SDS011;52977;44.816;20.538;2023-05-01T11:13:56;9.48;;;4.68;;
66175;SDS011;52977;44.816;20.538;2023-05-01T11:21:37;10.18;;;4.43;;
66175;SDS011;52977;44.816;20.538;2023-05-01T11:24:05;10.27;;;4.07;;
66175;SDS011;52977;44.816;20.538;2023-05-01T11:26:31;7.38;;;4.32;;
66175;SDS011;52977;44.816;20.538;2023-05-01T11:28:57;6.40;;;3.40;;
66175;SDS011;52977;44.816;20.538;2023-05-01T11:31:25;7.75;;;4.05;;
66175;SDS011;52977;44.816;20.538;2023-05-01T11:33:51;7.45;;;4.13;;
66175;SDS011;52977;44.816;20.538;2023-05-01T11:36:20;7.13;;;4.18;;
66175;SDS011;52977;44.816;20.538;2023-05-01T11:38:52;7.00;;;4.22;;
66175;SDS011;52977;44.816;20.538;2023-05-01T11:41:23;7.05;;;3.97;;
66175;SDS011;52977;44.816;20.538;2023-05-01T11:43:57;8.27;;;4.22;;
66175;SDS011;52977;44.816;20.538;2023-05-01T11:46:24;8.05;;;4.43;;
66175;SDS011;52977;44.816;20.538;2023-05-01T11:51:30;11.07;;;5.18;;
66175;SDS011;52977;44.816;20.538;2023-05-01T11:54:04;10.75;;;4.60;;
66175;SDS011;52977;44.816;20.538;2023-05-01T11:56:32;10.93;;;4.25;;
66175;SDS011;52977;44.816;20.538;2023-05-01T11:59:08;6.53;;;4.13;;
66175;SDS011;52977;44.816;20.538;2023-05-01T12:01:37;9.38;;;4.60;;
66175;SDS011;52977;44.816;20.538;2023-05-01T12:04:06;8.90;;;4.00;;
66175;SDS011;52977;44.816;20.538;2023-05-01T12:06:43;12.13;;;4.18;;
66175;SDS011;52977;44.816;20.538;2023-05-01T12:09:17;7.60;;;4.05;;
66175;SDS011;52977;44.816;20.538;2023-05-01T12:11:45;10.60;;;3.95;;
66175;SDS011;52977;44.816;20.538;2023-05-01T12:14:13;8.35;;;4.30;;
66175;SDS011;52977;44.816;20.538;2023-05-01T12:16:39;46.70;;;12.70;;
66175;SDS011;52977;44.816;20.538;2023-05-01T12:19:06;8.45;;;4.10;;
66175;SDS011;52977;44.816;20.538;2023-05-01T12:21:32;7.30;;;3.67;;
66175;SDS011;52977;44.816;20.538;2023-05-01T12:24:12;8.82;;;3.90;;
66175;SDS011;52977;44.816;20.538;2023-05-01T12:26:40;7.15;;;3.80;;
66175;SDS011;52977;44.816;20.538;2023-05-01T12:29:07;5.50;;;3.30;;
66175;SDS011;52977;44.816;20.538;2023-05-01T12:31:34;5.90;;;3.35;;
66175;SDS011;52977;44.816;20.538;2023-05-01T12:34:02;7.10;;;3.60;;
66175;SDS011;52977;44.816;20.538;2023-05-01T12:36:31;7.22;;;4.00;;
66175;SDS011;52977;44.816;20.538;2023-05-01T12:39:03;18.90;;;4.45;;
66175;SDS011;52977;44.816;20.538;2023-05-01T12:44:22;7.93;;;3.33;;
66175;SDS011;52977;44.816;20.538;2023-05-01T12:49:20;6.22;;;3.50;;
66175;SDS011;52977;44.816;20.538;2023-05-01T12:51:48;6.47;;;3.50;;
66175;SDS011;52977;44.816;20.538;2023-05-01T12:54:20;7.45;;;4.40;;
66175;SDS011;52977;44.816;20.538;2023-05-01T12:56:51;8.35;;;4.30;;
66175;SDS011;52977;44.816;20.538;2023-05-01T12:59:20;8.93;;;4.07;;
66175;SDS011;52977;44.816;20.538;2023-05-01T13:04:27;7.68;;;3.47;;
66175;SDS011;52977;44.816;20.538;2023-05-01T13:06:54;7.47;;;3.92;;
66175;SDS011;52977;44.816;20.538;2023-05-01T13:09:22;10.30;;;3.70;;
66175;SDS011;52977;44.816;20.538;2023-05-01T13:11:58;7.63;;;3.70;;
66175;SDS011;52977;44.816;20.538;2023-05-01T13:14:27;7.55;;;4.15;;
66175;SDS011;52977;44.816;20.538;2023-05-01T13:16:55;7.32;;;4.00;;
66175;SDS011;52977;44.816;20.538;2023-05-01T13:19:27;7.43;;;4.15;;
66175;SDS011;52977;44.816;20.538;2023-05-01T13:21:54;7.00;;;3.70;;
66175;SDS011;52977;44.816;20.538;2023-05-01T13:24:23;8.48;;;3.72;;
66175;SDS011;52977;44.816;20.538;2023-05-01T13:26:56;9.10;;;3.75;;
66175;SDS011;52977;44.816;20.538;2023-05-01T13:29:26;8.20;;;4.85;;
66175;SDS011;52977;44.816;20.538;2023-05-01T13:31:52;9.40;;;4.25;;
66175;SDS011;52977;44.816;20.538;2023-05-01T13:34:40;8.10;;;3.60;;
66175;SDS011;52977;44.816;20.538;2023-05-01T13:37:08;8.05;;;3.88;;
66175;SDS011;52977;44.816;20.538;2023-05-01T13:39:42;6.90;;;3.90;;
66175;SDS011;52977;44.816;20.538;2023-05-01T13:42:22;7.82;;;3.53;;
66175;SDS011;52977;44.816;20.538;2023-05-01T13:44:52;7.05;;;3.17;;
66175;SDS011;52977;44.816;20.538;2023-05-01T13:47:20;7.13;;;3.20;;
66175;SDS011;52977;44.816;20.538;2023-05-01T13:49:50;5.47;;;3.03;;
66175;SDS011;52977;44.816;20.538;2023-05-01T13:52:17;9.68;;;3.67;;
66175;SDS011;52977;44.816;20.538;2023-05-01T13:54:44;5.93;;;3.25;;
66175;SDS011;52977;44.816;20.538;2023-05-01T13:57:12;6.90;;;3.42;;
66175;SDS011;52977;44.816;20.538;2023-05-01T13:59:43;7.40;;;3.60;;
66175;SDS011;52977;44.816;20.538;2023-05-01T14:02:17;6.63;;;3.40;;
66175;SDS011;52977;44.816;20.538;2023-05-01T14:04:45;10.40;;;6.15;;
66175;SDS011;52977;44.816;20.538;2023-05-01T14:07:19;6.63;;;3.47;;
66175;SDS011;52977;44.816;20.538;2023-05-01T14:09:49;4.80;;;2.97;;
66175;SDS011;52977;44.816;20.538;2023-05-01T14:12:20;5.43;;;2.83;;
66175;SDS011;52977;44.816;20.538;2023-05-01T14:14:57;4.63;;;2.92;;
66175;SDS011;52977;44.816;20.538;2023-05-01T14:17:35;8.35;;;3.30;;
66175;SDS011;52977;44.816;20.538;2023-05-01T14:20:03;9.90;;;4.55;;
66175;SDS011;52977;44.816;20.538;2023-05-01T14:22:33;6.20;;;3.53;;
66175;SDS011;52977;44.816;20.538;2023-05-01T14:27:52;7.20;;;3.85;;
66175;SDS011;52977;44.816;20.538;2023-05-01T14:33:16;6.07;;;3.10;;
66175;SDS011;52977;44.816;20.538;2023-05-01T14:35:49;6.35;;;3.45;;
66175;SDS011;52977;44.816;20.538;2023-05-01T14:38:18;6.40;;;3.47;;
66175;SDS011;52977;44.816;20.538;2023-05-01T14:40:44;6.68;;;3.47;;
66175;SDS011;52977;44.816;20.538;2023-05-01T14:43:12;8.68;;;3.75;;
66175;SDS011;52977;44.816;20.538;2023-05-01T14:45:41;16.45;;;7.65;;
66175;SDS011;52977;44.816;20.538;2023-05-01T14:48:10;6.10;;;3.80;;
66175;SDS011;52977;44.816;20.538;2023-05-01T14:50:46;38.05;;;18.02;;
66175;SDS011;52977;44.816;20.538;2023-05-01T14:53:13;7.00;;;3.42;;
66175;SDS011;52977;44.816;20.538;2023-05-01T14:55:39;5.47;;;3.40;;
66175;SDS011;52977;44.816;20.538;2023-05-01T14:58:06;5.40;;;3.00;;
66175;SDS011;52977;44.816;20.538;2023-05-01T15:00:32;7.63;;;3.15;;
66175;SDS011;52977;44.816;20.538;2023-05-01T15:03:00;8.88;;;3.28;;
66175;SDS011;52977;44.816;20.538;2023-05-01T15:05:26;6.88;;;3.58;;
66175;SDS011;52977;44.816;20.538;2023-05-01T15:07:54;6.60;;;3.58;;
66175;SDS011;52977;44.816;20.538;2023-05-01T15:10:27;6.63;;;3.58;;
66175;SDS011;52977;44.816;20.538;2023-05-01T15:12:54;5.30;;;3.10;;
66175;SDS011;52977;44.816;20.538;2023-05-01T15:15:20;10.73;;;5.60;;
66175;SDS011;52977;44.816;20.538;2023-05-01T15:17:46;5.97;;;3.60;;
66175;SDS011;52977;44.816;20.538;2023-05-01T15:20:12;6.88;;;3.85;;
66175;SDS011;52977;44.816;20.538;2023-05-01T15:22:38;7.32;;;3.50;;
66175;SDS011;52977;44.816;20.538;2023-05-01T15:25:05;7.28;;;3.55;;